Petrified Forest Natl Pk, Arizona
Current Conditions -  °F | °C
As of 6:54 PM on Monday 20 Oct 2014 (Local Time) from KSJN Reporting Station
Clear Clear  
Wind Chill: 57°   Ceiling: Unl
Heat Index: 57°   Visibility: 10mi
Dew Point: 46°   Wind: 7mph
Humidity: 67%   Direction: 160°SSE
Pressure: 30.11"   Gusts: NA
Location:  34.7916°N, 109.878°W
Report Text: KSJN 210154Z AUTO 16006KT 10SM CLR 14/08 A3011 RMK AO2 SLP154 T01390078
Loading
Personal Weather Stations






























Interactive Weather Map
Tropical Storm Tracking
New forecast layout! Learn more

10-Day Weather Forecast

Advertisements
Track Severe Weather on mobile